Terminal Aerodrome Forecast
Issued by NWS

Home | Current Version | Previous Version | Text Only | Print | Product List | Glossary On
Versions: 1 2 3 4 5 6 7 8 9 10 11 12 13 14 15
000
FTUS46 KSTO 042325
TAFSAC
TAF
KSAC 042325Z 0500/0524 22012G19KT P6SM FEW120 BKN250
     FM050600 18009KT P6SM FEW250
     FM051800 22012G18KT P6SM SCT250=

USA.gov is the U.S. government's official web portal to all federal, state and local government web resources and services.